Royse City's Hourly Summary for Thursday, July 5, 2018
Hour Temp
(f)
RH
(%)
Solar Rad.
(MJ/m2)
Rainfall
(in)
Wind
(mph)
7/5/2018 12:00 AM 78 72 0 0 0.87
7/5/2018 1:00 AM 76 75 0 0 0.75
7/5/2018 2:00 AM 74 77 0 0 0
7/5/2018 3:00 AM 72 86 0 0 0
7/5/2018 4:00 AM 72 87 0 0 0
7/5/2018 5:00 AM 72 88 0 0 0.01
7/5/2018 6:00 AM 71 92 0 0 0.01
7/5/2018 7:00 AM 71 99 0.03 0 0
7/5/2018 8:00 AM 75 75 0.46 0 0
7/5/2018 9:00 AM 81 67 1.3 0 0.47
7/5/2018 10:00 AM 83 61 1.92 0 0.85
7/5/2018 11:00 AM 85 53 2.42 0 1.32
7/5/2018 12:00 PM 89 46 2.27 0 1.18
7/5/2018 1:00 PM 90 43 2.35 0 1.39
7/5/2018 2:00 PM 92 41 2.77 0 1.6
7/5/2018 3:00 PM 92 37 2.46 0 2.17
7/5/2018 4:00 PM 93 37 1.97 0 2.04
7/5/2018 5:00 PM 95 36 2.08 0 1.88
7/5/2018 6:00 PM 95 35 1.23 0 1.92
7/5/2018 7:00 PM 88 43 0.25 0 2.26
7/5/2018 8:00 PM 85 53 0.12 0 0.62
7/5/2018 9:00 PM 84 58 0.04 0 1.1
7/5/2018 10:00 PM 82 64 0 0 0.39
7/5/2018 11:00 PM 81 66 0 0 0.53
Data Summary 82 62 21.67 0.00 0.89